• Join FlightAware (Why Join?)
  • Login
  • US Flag 
06:03PM EDT


 

Airport Tracker/Info


-or-


 

Live Flight TrackerFlight Track Log ✈ N8425N ✈ 05-May-2013 ✈ KUDD - KUAO

Flight Track Log - Related Links

Times and Time Zones

All times are in EDT time to prevent confusion due to time zone crossing. See the N8425N flight status page for this flight to view local times or setup timezone preferences in your user account.

Time Position Orientation Groundspeed Altitude Reporting Facility
EDT Latitude Longitude Course Direction KTS MPH feet Rate Location/Type
10:06AM 33.7833 -116.3167 320° Northwest 101 116 1,200  Level Southern California TRACON
10:07AM 33.8000 -116.3333 320° Northwest 112 129 1,800 600 Climbing Southern California TRACON
10:08AM 33.8167 -116.3667 301° West 117 135 2,400 600 Climbing Southern California TRACON
10:09AM 33.8500 -116.3833 337° Northwest 117 135 3,100 720 Climbing Southern California TRACON
10:10AM 33.8667 -116.4000 320° Northwest 114 131 3,900 720 Climbing Southern California TRACON
10:11AM 33.9000 -116.4167 337° Northwest 123 142 4,600 780 Climbing Southern California TRACON
10:13AM 33.9333 -116.4333 337° Northwest 109 125 5,600 840 Climbing Southern California TRACON
10:14AM 33.9667 -116.4500 337° Northwest 106 122 6,400 780 Climbing Southern California TRACON
10:14AM 33.9833 -116.4500 360° North 102 117 7,100 4,800 Climbing Southern California TRACON
10:15AM 33.9931 -116.4594 321° Northwest 101 116 12,000 3,780 Climbing Los Angeles Center
10:16AM 34.0181 -116.4750 333° Northwest 104 120 12,000 -1,980 Level Los Angeles Center
10:17AM 34.0453 -116.4892 337° Northwest 135 155 8,000 -1,740 Descending Los Angeles Center
10:18AM 34.0728 -116.5031 337° Northwest 112 129 8,500 540 Climbing Los Angeles Center
10:19AM 34.0961 -116.5169 334° Northwest 106 122 9,200 780 Climbing Los Angeles Center
10:20AM 34.1308 -116.5300 343° North 113 130 10,200 720 Climbing Los Angeles Center
10:21AM 34.1631 -116.5433 341° North 120 138 10,700 240 Climbing Los Angeles Center
10:22AM 34.2025 -116.5581 343° North 141 162 10,800  Climbing Los Angeles Center
10:23AM 34.2461 -116.5750 342° North 159 183 10,700 -120 Descending Los Angeles Center
10:24AM 34.2897 -116.5928 341° North 163 188 10,600 -60 Descending Los Angeles Center
10:25AM 34.3328 -116.6100 342° North 164 189 10,600  Level Los Angeles Center
10:26AM 34.3744 -116.6272 341° North 159 183 10,600 -60 Level Los Angeles Center
10:27AM 34.4264 -116.6483 341° North 164 189 10,500 -60 Descending Los Angeles Center
10:28AM 34.4764 -116.6675 342° North 157 181 10,500  Level Los Angeles Center
10:29AM 34.5119 -116.6947 328° Northwest 167 192 10,500  Level Los Angeles Center
10:30AM 34.5303 -116.7411 296° West 155 178 10,500  Level Los Angeles Center
10:31AM 34.5492 -116.7881 296° West 154 177 10,500  Level Los Angeles Center
10:32AM 34.5636 -116.8258 295° West 154 177 10,500  Level Los Angeles Center
10:33AM 34.5836 -116.8714 298° West 154 177 10,500  Level Los Angeles Center
10:34AM 34.6042 -116.9239 295° West 148 170 10,500  Level Los Angeles Center
10:35AM 34.6228 -116.9686 297° West 148 170 10,500  Level Los Angeles Center
10:36AM 34.6419 -117.0142 297° West 149 171 10,500  Level Los Angeles Center
10:37AM 34.6625 -117.0611 298° West 153 176 10,500  Level Los Angeles Center
10:38AM 34.6794 -117.1011 297° West 158 182 10,500  Level Los Angeles Center
10:39AM 34.7033 -117.1594 296° West 161 185 10,500  Level Los Angeles Center
10:40AM 34.7269 -117.2183 296° West 161 185 10,500  Level Los Angeles Center
10:41AM 34.7492 -117.2700 298° West 166 191 10,500  Level Los Angeles Center
10:42AM 34.7689 -117.3186 296° West 165 190 10,500  Level Los Angeles Center
10:43AM 34.7886 -117.3667 297° West 161 185 10,500  Level Los Angeles Center
10:44AM 34.8094 -117.4158 297° West 162 186 10,500  Level Los Angeles Center
10:45AM 34.8286 -117.4642 296° West 161 185 10,500  Level Los Angeles Center
10:46AM 34.8489 -117.5122 297° West 159 183 10,500  Level Los Angeles Center
10:47AM 34.8678 -117.5603 296° West 157 181 10,500  Level Los Angeles Center
10:48AM 34.8881 -117.6086 297° West 158 182 10,500  Level Los Angeles Center
10:50AM 34.9072 -117.6561 296° West 156 180 10,500  Level Los Angeles Center
10:51AM 34.9264 -117.7036 296° West 155 178 10,500  Level Los Angeles Center
10:52AM 34.9461 -117.7506 297° West 155 178 10,500  Level Los Angeles Center
10:53AM 34.9647 -117.7967 296° West 153 176 10,500  Level Los Angeles Center
10:54AM 34.9836 -117.8433 296° West 152 175 10,500  Level Los Angeles Center
10:55AM 35.0119 -117.9122 297° West 158 182 10,500  Level Los Angeles Center
10:56AM 35.0328 -117.9617 297° West 162 186 10,500  Level Los Angeles Center
10:57AM 35.0508 -118.0058 297° West 152 175 10,500  Level Los Angeles Center
10:58AM 35.0692 -118.0528 296° West 151 174 10,500  Level Los Angeles Center
10:59AM 35.0878 -118.0981 297° West 151 174 10,500  Level Los Angeles Center
11:00AM 35.1058 -118.1433 296° West 149 171 10,500  Level Los Angeles Center
11:01AM 35.1261 -118.1933 296° West 160 184 10,500  Level Los Angeles Center
11:02AM 35.1456 -118.2417 296° West 160 184 10,600  Climbing Los Angeles Center
11:03AM 35.1633 -118.2869 296° West 151 174 10,600 -60 Level Los Angeles Center
11:04AM 35.1869 -118.3450 296° West 159 183 10,500 180 Descending Los Angeles Center
11:05AM 35.2053 -118.3900 297° West 149 171 11,000 420 Climbing Los Angeles Center
11:06AM 35.2228 -118.4333 296° West 145 167 11,400 480 Climbing Los Angeles Center
11:07AM 35.2389 -118.4758 295° West 140 161 12,000 480 Climbing Los Angeles Center
11:08AM 35.2581 -118.5203 298° West 143 165 12,500 240 Climbing Los Angeles Center
11:09AM 35.2783 -118.5697 297° West 159 183 12,500  Level Los Angeles Center
11:10AM 35.2983 -118.6206 296° West 166 191 12,500  Level Los Angeles Center
11:11AM 35.3175 -118.6694 296° West 162 186 12,500  Level Los Angeles Center
11:12AM 35.3375 -118.7197 296° West 164 189 12,500  Level Los Angeles Center
11:13AM 35.3725 -118.7714 310° West 169 194 12,500  Level Los Angeles Center
11:14AM 35.4164 -118.7964 335° Northwest 175 201 12,500  Level Los Angeles Center
11:15AM 35.4567 -118.8261 329° Northwest 171 197 12,500  Level Los Angeles Center
11:16AM 35.5017 -118.8544 333° Northwest 178 205 12,500  Level Los Angeles Center
11:17AM 35.5431 -118.8836 330° Northwest 175 201 12,500  Level Los Angeles Center
11:18AM 35.5842 -118.9119 331° Northwest 171 197 12,500  Level Los Angeles Center
11:19AM 35.6261 -118.9414 330° Northwest 173 199 12,500  Level Los Angeles Center
11:20AM 35.6753 -118.9758 330° Northwest 173 199 12,500  Level Oakland Center
11:21AM 35.7172 -119.0047 331° Northwest 173 199 12,500  Level Oakland Center
11:22AM 35.7600 -119.0347 330° Northwest 174 200 12,500  Level Oakland Center
11:23AM 35.8039 -119.0647 331° Northwest 178 205 12,500  Level Oakland Center
11:25AM 35.8464 -119.0942 331° Northwest 178 205 12,500  Level Oakland Center
11:26AM 35.8886 -119.1231 331° Northwest 176 203 12,500  Level Oakland Center
11:27AM 35.9306 -119.1528 330° Northwest 176 203 12,500  Level Oakland Center
11:28AM 35.9736 -119.1828 331° Northwest 177 204 12,500  Level Oakland Center
11:29AM 36.0142 -119.2092 332° Northwest 168 193 12,500  Level Oakland Center
11:30AM 36.0561 -119.2381 331° Northwest 172 198 12,500  Level Oakland Center
11:31AM 36.0975 -119.2669 331° Northwest 172 198 12,500  Level Oakland Center
11:32AM 36.1472 -119.3006 331° Northwest 172 198 12,500  Level Oakland Center
11:33AM 36.1883 -119.3300 330° Northwest 171 197 12,500  Level Oakland Center
11:34AM 36.2297 -119.3592 330° Northwest 172 198 12,500  Level Oakland Center
11:35AM 36.2708 -119.3892 330° Northwest 172 198 12,500  Level Oakland Center
11:36AM 36.3139 -119.4164 333° Northwest 173 199 12,500  Level Oakland Center
11:37AM 36.3556 -119.4461 330° Northwest 175 201 12,500  Level Oakland Center
11:38AM 36.3969 -119.4753 330° Northwest 172 198 12,500  Level Oakland Center
11:39AM 36.4386 -119.5053 330° Northwest 174 200 12,500  Level Oakland Center
11:40AM 36.4806 -119.5342 331° Northwest 172 198 12,500  Level Oakland Center
11:41AM 36.5239 -119.5650 330° Northwest 176 203 12,500  Level Oakland Center
11:42AM 36.5667 -119.5956 330° Northwest 177 204 12,500  Level Oakland Center
11:43AM 36.6178 -119.6325 330° Northwest 176 203 12,500  Level Oakland Center
11:44AM 36.6606 -119.6625 331° Northwest 176 203 12,500  Level Oakland Center
11:45AM 36.7033 -119.6936 330° Northwest 178 205 12,500  Level Oakland Center
11:46AM 36.7469 -119.7250 330° Northwest 180 207 12,500  Level Oakland Center
11:47AM 36.7892 -119.7536 332° Northwest 174 200 12,500  Level Oakland Center
11:48AM 36.8328 -119.7861 329° Northwest 181 208 12,500  Level Oakland Center
11:49AM 36.8758 -119.8181 329° Northwest 180 207 12,500  Level Oakland Center
11:50AM 36.9189 -119.8489 330° Northwest 180 207 12,500  Level Oakland Center
11:51AM 36.9619 -119.8800 330° Northwest 178 205 12,500  Level Oakland Center
11:52AM 37.0050 -119.9108 330° Northwest 177 204 12,500  Level Oakland Center
11:53AM 37.0447 -119.9458 325° Northwest 174 200 12,500  Level Oakland Center
11:54AM 37.0847 -119.9939 316° Northwest 173 199 12,500  Level Oakland Center
11:55AM 37.1167 -120.0283 319° Northwest 174 200 12,500  Level Oakland Center
11:56AM 37.1589 -120.0769 317° Northwest 171 197 12,500  Level Oakland Center
11:57AM 37.1961 -120.1178 319° Northwest 176 203 12,500  Level Oakland Center
11:58AM 37.2328 -120.1586 318° Northwest 176 203 12,500  Level Oakland Center
11:59AM 37.2681 -120.2000 317° Northwest 172 198 12,500  Level Oakland Center
12:00PM 37.3036 -120.2422 317° Northwest 172 198 12,500  Level Oakland Center
12:01PM 37.3406 -120.2811 320° Northwest 174 200 12,500  Level Oakland Center
12:02PM 37.3781 -120.3228 319° Northwest 179 206 12,500  Level Oakland Center
12:03PM 37.4150 -120.3650 318° Northwest 177 204 12,500  Level Oakland Center
12:04PM 37.4333 -120.3833 322° Northwest 178 205 12,500  Level Northern Cal TRACON
12:05PM 37.4833 -120.4333 322° Northwest 177 204 12,500  Level Northern Cal TRACON
12:06PM 37.5167 -120.4833 310° West 177 204 12,500  Level Northern Cal TRACON
12:07PM 37.5500 -120.5167 322° Northwest 176 203 12,500  Level Northern Cal TRACON
12:08PM 37.5833 -120.5500 322° Northwest 178 205 12,500  Level Northern Cal TRACON
12:09PM 37.6167 -120.6000 310° West 181 208 12,500  Level Northern Cal TRACON
12:09PM 37.6433 -120.6228 326° Northwest 179 206 12,500  Level Oakland Center
12:10PM 37.6667 -120.6500 317° Northwest 178 205 12,500  Level Northern Cal TRACON
12:11PM 37.7000 -120.6833 322° Northwest 180 207 12,500  Level Northern Cal TRACON
12:12PM 37.7333 -120.7167 322° Northwest 180 207 12,500  Level Northern Cal TRACON
12:13PM 37.7667 -120.7667 310° West 178 205 12,500  Level Northern Cal TRACON
12:14PM 37.8000 -120.8000 322° Northwest 177 204 12,500  Level Northern Cal TRACON
12:15PM 37.8333 -120.8500 310° West 179 206 12,500  Level Northern Cal TRACON
12:16PM 37.8667 -120.8833 322° Northwest 181 208 12,500  Level Northern Cal TRACON
12:16PM 37.9017 -120.9169 323° Northwest 179 206 12,500 -180 Level Oakland Center
12:17PM 37.9397 -120.9614 317° Northwest 184 212 12,200 -420 Descending Oakland Center
12:18PM 37.9808 -121.0092 318° Northwest 197 227 11,700 -540 Descending Oakland Center
12:19PM 38.0244 -121.0600 317° Northwest 211 243 11,200 -600 Descending Oakland Center
12:20PM 38.0658 -121.1086 317° Northwest 206 237 10,600 -540 Descending Oakland Center
12:22PM 38.1167 -121.1667 318° Northwest 203 234 10,100 -300 Descending Northern Cal TRACON
12:23PM 38.1500 -121.2167 310° West 189 217 10,000 -60 Descending Northern Cal TRACON
12:24PM 38.2000 -121.2667 322° Northwest 183 211 10,000  Level Northern Cal TRACON
12:25PM 38.2333 -121.3000 322° Northwest 181 208 10,000  Level Northern Cal TRACON
12:26PM 38.2667 -121.3500 310° West 180 207 10,000  Level Northern Cal TRACON
12:27PM 38.3000 -121.3833 322° Northwest 186 214 10,000  Level Northern Cal TRACON
12:28PM 38.3500 -121.4333 322° Northwest 187 215 10,000  Level Northern Cal TRACON
12:29PM 38.3833 -121.4833 310° West 187 215 10,000  Level Northern Cal TRACON
12:30PM 38.4167 -121.5167 322° Northwest 189 217 10,000  Level Northern Cal TRACON
12:31PM 38.4500 -121.5667 310° West 183 211 10,000  Level Northern Cal TRACON
12:32PM 38.4833 -121.6333 303° West 188 216 10,000  Level Northern Cal TRACON
12:33PM 38.5167 -121.6833 310° West 193 222 10,000  Level Northern Cal TRACON
12:34PM 38.5500 -121.7167 322° Northwest 199 229 10,000  Level Northern Cal TRACON
12:35PM 38.6000 -121.7333 345° North 200 230 10,000  Level Northern Cal TRACON
12:36PM 38.6606 -121.7575 343° North 196 226 10,000  Level Oakland Center
12:37PM 38.7142 -121.7736 347° North 197 227 10,000  Level Oakland Center
12:38PM 38.7781 -121.7889 349° North 195 224 10,000  Level Oakland Center
12:39PM 38.8294 -121.8058 346° North 190 219 10,000  Level Oakland Center
12:40PM 38.8822 -121.8214 347° North 194 223 10,000  Level Oakland Center
12:41PM 38.9364 -121.8403 345° North 199 229 10,000  Level Oakland Center
12:42PM 38.9908 -121.8586 345° North 201 231 10,000  Level Oakland Center
12:43PM 39.0439 -121.8767 345° North 197 227 10,000  Level Oakland Center
12:44PM 39.0961 -121.8925 347° North 194 223 10,000  Level Oakland Center
12:45PM 39.1481 -121.9100 345° North 192 221 10,000  Level Oakland Center
12:46PM 39.2008 -121.9269 346° North 195 224 10,000  Level Oakland Center
12:47PM 39.2550 -121.9475 344° North 201 231 10,000  Level Oakland Center
12:48PM 39.3075 -121.9647 346° North 196 226 10,000  Level Oakland Center
12:49PM 39.3606 -121.9817 346° North 195 224 10,000  Level Oakland Center
12:50PM 39.4233 -122.0039 345° North 195 224 10,000  Level Oakland Center
12:51PM 39.4753 -122.0206 346° North 194 223 10,000  Level Oakland Center
12:52PM 39.5242 -122.0381 345° North 196 226 10,000  Level Oakland Center
12:53PM 39.5772 -122.0550 346° North 197 227 10,000  Level Oakland Center
12:54PM 39.6311 -122.0744 344° North 202 232 10,000  Level Oakland Center
12:55PM 39.6844 -122.0919 346° North 199 229 10,000  Level Oakland Center
12:56PM 39.7483 -122.1142 345° North 198 228 10,000 240 Level Oakland Center
12:57PM 39.7997 -122.1325 345° North 194 223 10,500 480 Climbing Oakland Center
12:58PM 39.8508 -122.1503 345° North 192 221 11,000 540 Climbing Oakland Center
12:59PM 39.9003 -122.1675 345° North 185 213 11,700 600 Climbing Oakland Center
01:00PM 39.9469 -122.1842 345° North 178 205 12,300 600 Climbing Oakland Center
01:01PM 39.9922 -122.1992 346° North 172 198 13,000 660 Climbing Oakland Center
01:02PM 40.0381 -122.2156 345° North 173 199 13,700 480 Climbing Oakland Center
01:03PM 40.0847 -122.2253 351° North 177 204 14,100 180 Climbing Oakland Center
01:04PM 40.1358 -122.1964 23° Northeast 172 198 14,100  Level Oakland Center
01:05PM 40.1786 -122.1689 26° Northeast 175 201 14,100  Level Oakland Center
01:06PM 40.2264 -122.1525 15° North 179 206 14,100  Level Oakland Center
01:07PM 40.2764 -122.1425 North 183 211 14,100  Level Oakland Center
01:08PM 40.3283 -122.1533 351° North 189 217 14,100  Level Oakland Center
01:09PM 40.3783 -122.1728 343° North 187 215 14,100 -60 Level Oakland Center
01:10PM 40.4289 -122.1936 343° North 188 216 14,000  Descending Oakland Center
01:11PM 40.4825 -122.2347 330° Northwest 189 217 14,100  Climbing Oakland Center
01:12PM 40.5211 -122.2753 321° Northwest 181 208 14,100 -60 Level Oakland Center
01:14PM 40.5531 -122.3200 313° West 171 197 14,000  Descending Oakland Center
01:15PM 40.5792 -122.3708 304° West 169 194 14,100  Climbing Oakland Center
01:16PM 40.6083 -122.4192 308° West 170 196 14,100  Level Oakland Center
01:17PM 40.6386 -122.4681 309° West 172 198 14,100  Level Oakland Center
01:18PM 40.6750 -122.5136 316° Northwest 183 211 14,100  Level Oakland Center
01:19PM 40.7211 -122.5419 335° Northwest 183 211 14,100 -180 Level Oakland Center
01:20PM 40.7769 -122.5825 331° Northwest 189 217 13,800 -420 Descending Oakland Center
01:21PM 40.8308 -122.5894 354° North 201 231 13,300 -540 Descending Oakland Center
01:22PM 40.8864 -122.6058 347° North 203 234 12,800 -420 Descending Oakland Center
01:23PM 40.9394 -122.6236 346° North 198 228 12,500 -180 Descending Oakland Center
01:24PM 40.9894 -122.6389 347° North 188 216 12,500  Level Oakland Center
01:25PM 41.0383 -122.6314 North 176 203 12,500  Level Oakland Center
01:26PM 41.0861 -122.6433 349° North 175 201 12,500  Level Oakland Center
01:27PM 41.1258 -122.6442 359° North 179 206 12,500  Level Seattle Center
01:28PM 41.1742 -122.6461 358° North 175 201 12,500  Level Seattle Center
01:29PM 41.2250 -122.6475 359° North 181 208 12,500  Level Seattle Center
01:30PM 41.2761 -122.6483 359° North 185 213 12,500  Level Seattle Center
01:31PM 41.3250 -122.6508 358° North 176 203 12,500  Level Seattle Center
01:32PM 41.3717 -122.6539 357° North 170 196 12,500  Level Seattle Center
01:33PM 41.4192 -122.6522 North 174 200 12,500  Level Seattle Center
01:34PM 41.4686 -122.6522 360° North 178 205 12,500  Level Seattle Center
01:35PM 41.5192 -122.6533 359° North 180 207 12,500  Level Seattle Center
01:36PM 41.5664 -122.6547 359° North 173 199 12,500  Level Seattle Center
01:37PM 41.6242 -122.6572 358° North 169 194 12,500  Level Seattle Center
01:38PM 41.6706 -122.6578 359° North 170 196 12,500  Level Seattle Center
01:39PM 41.7186 -122.6586 359° North 171 197 12,500  Level Seattle Center
01:40PM 41.7664 -122.6603 359° North 171 197 12,500  Level Seattle Center
01:41PM 41.8139 -122.6622 358° North 171 197 12,500  Level Seattle Center
01:42PM 41.8633 -122.6625 360° North 174 200 12,500  Level Seattle Center
01:43PM 41.9133 -122.6644 358° North 179 206 12,500  Level Seattle Center
01:44PM 41.9600 -122.6664 358° North 170 196 12,500  Level Seattle Center
01:45PM 42.0103 -122.6689 358° North 174 200 12,500  Level Seattle Center
01:46PM 42.0578 -122.6697 359° North 175 201 12,500  Level Seattle Center
01:47PM 42.1056 -122.6711 359° North 170 196 12,500  Level Seattle Center
01:48PM 42.1531 -122.6731 358° North 172 198 12,500  Level Seattle Center
01:49PM 42.2008 -122.6739 359° North 171 197 12,500  Level Seattle Center
01:50PM 42.2481 -122.6761 358° North 170 196 12,500  Level Seattle Center
01:51PM 42.2969 -122.6761 360° North 172 198 12,500  Level Seattle Center
01:52PM 42.3464 -122.6797 357° North 177 204 12,500  Level Seattle Center
01:53PM 42.3958 -122.6814 359° North 176 203 12,500  Level Seattle Center
01:54PM 42.4422 -122.6828 359° North 167 192 12,500  Level Seattle Center
01:55PM 42.4956 -122.6842 359° North 160 184 12,500  Level Seattle Center
01:56PM 42.5439 -122.6867 358° North 175 201 12,500  Level Seattle Center
01:57PM 42.5914 -122.6875 359° North 172 198 12,500  Level Seattle Center
01:58PM 42.6386 -122.6889 359° North 170 196 12,500  Level Seattle Center
01:59PM 42.6861 -122.6894 360° North 171 197 12,500  Level Seattle Center
02:00PM 42.7333 -122.6931 357° North 172 198 12,500  Level Seattle Center
02:01PM 42.7819 -122.6928 360° North 177 204 12,500  Level Seattle Center
02:02PM 42.8325 -122.6953 358° North 181 208 12,500  Level Seattle Center
02:03PM 42.8856 -122.6961 359° North 195 224 12,500  Level Seattle Center
02:04PM 42.9392 -122.6986 358° North 195 224 12,500  Level Seattle Center
02:05PM 42.9897 -122.7006 358° North 183 211 12,500  Level Seattle Center
02:06PM 43.0389 -122.6994 North 180 207 12,500  Level Seattle Center
02:07PM 43.0981 -122.7019 358° North 176 203 12,500  Level Seattle Center
02:08PM 43.1450 -122.7047 358° North 171 197 12,500  Level Seattle Center
02:09PM 43.1931 -122.7042 360° North 171 197 12,500  Level Seattle Center
02:10PM 43.2414 -122.7058 359° North 173 199 12,500  Level Seattle Center
02:11PM 43.2908 -122.7075 359° North 177 204 12,500  Level Seattle Center
02:12PM 43.3406 -122.7097 358° North 178 205 12,500  Level Seattle Center
02:13PM 43.3917 -122.7108 359° North 182 209 12,500  Level Seattle Center
02:14PM 43.4419 -122.7122 359° North 183 211 12,500  Level Seattle Center
02:15PM 43.4928 -122.7125 360° North 182 209 12,500  Level Seattle Center
02:16PM 43.5419 -122.7150 358° North 180 207 12,500  Level Seattle Center
02:17PM 43.5928 -122.7156 360° North 182 209 12,500  Level Seattle Center
02:18PM 43.6444 -122.7181 358° North 184 212 12,500  Level Seattle Center
02:19PM 43.7050 -122.7189 359° North 182 209 12,500  Level Seattle Center
02:20PM 43.7558 -122.7219 358° North 183 211 12,500  Level Seattle Center
02:21PM 43.8044 -122.7231 359° North 177 204 12,500  Level Seattle Center
02:22PM 43.8528 -122.7242 359° North 174 200 12,500  Level Seattle Center
02:23PM 43.8981 -122.7250 359° North 165 190 12,500  Level Seattle Center
02:24PM 43.9461 -122.7281 357° North 172 198 12,500  Level Seattle Center
02:25PM 43.9936 -122.7289 359° North 171 197 12,500  Level Seattle Center
02:26PM 44.0411 -122.7300 359° North 170 196 12,500  Level Seattle Center
02:27PM 44.0886 -122.7325 358° North 170 196 12,500  Level Seattle Center
02:28PM 44.1361 -122.7339 359° North 170 196 12,500  Level Seattle Center
02:30PM 44.1875 -122.7347 359° North 169 194 12,500  Level Seattle Center
02:31PM 44.2386 -122.7367 358° North 167 192 12,500  Level Seattle Center
02:32PM 44.2853 -122.7386 358° North 168 193 12,500 -120 Level Seattle Center
02:33PM 44.3322 -122.7400 359° North 168 193 12,300 -300 Descending Seattle Center
02:34PM 44.3778 -122.7411 359° North 177 204 11,900 -480 Descending Seattle Center
02:35PM 44.4297 -122.7428 359° North 184 212 11,400 -600 Descending Seattle Center
02:36PM 44.4831 -122.7439 359° North 192 221 10,800 -600 Descending Seattle Center
02:37PM 44.5456 -122.7472 358° North 190 219 10,200 -540 Descending Seattle Center
02:38PM 44.5981 -122.7481 359° North 189 217 9,800 -420 Descending Seattle Center
02:39PM 44.6494 -122.7497 359° North 187 215 9,400 -480 Descending Seattle Center
02:40PM 44.7028 -122.7514 359° North 190 219 8,900 -600 Descending Seattle Center
02:41PM 44.7547 -122.7533 358° North 190 219 8,300 -600 Descending Seattle Center
02:42PM 44.8056 -122.7556 358° North 185 213 7,700 -600 Descending Seattle Center
02:43PM 44.8581 -122.7581 358° North 187 215 7,100 -600 Descending Seattle Center
02:44PM 44.9089 -122.7569 North 186 214 6,600 -360 Descending Seattle Center
02:45PM 44.9550 -122.7694 349° North 174 200 6,400 -240 Descending Seattle Center